createdAt,value
2024-02-16T00:02:02.552Z,12.54
2024-02-16T00:04:29.313Z,11.87
2024-02-16T00:06:56.105Z,12.82
2024-02-16T00:09:22.763Z,12.26
2024-02-16T00:11:49.476Z,11.87
2024-02-16T00:14:16.131Z,11.65
2024-02-16T00:16:42.694Z,10.77
2024-02-16T00:19:09.328Z,13.53
2024-02-16T00:21:36.020Z,10.65
2024-02-16T00:24:02.786Z,15.47
2024-02-16T00:26:29.729Z,12.32
2024-02-16T00:28:56.368Z,11.87
2024-02-16T00:31:24.191Z,9.92
2024-02-16T00:33:50.959Z,15.12
2024-02-16T00:36:17.670Z,11.27
2024-02-16T00:38:44.257Z,12.26
2024-02-16T00:41:10.841Z,10.28
2024-02-16T00:43:37.473Z,9.97
2024-02-16T00:46:04.104Z,11.37
2024-02-16T00:48:30.815Z,10.77
2024-02-16T00:50:57.476Z,11.31
2024-02-16T00:53:24.055Z,10.71
2024-02-16T00:55:50.632Z,10.70
2024-02-16T00:58:17.239Z,12.50
2024-02-16T01:00:43.863Z,14.16
2024-02-16T01:03:10.533Z,13.26
2024-02-16T01:05:37.202Z,12.58
2024-02-16T01:08:03.785Z,11.25
2024-02-16T01:10:30.393Z,11.32
2024-02-16T01:12:56.833Z,14.21
2024-02-16T01:15:23.451Z,13.99
2024-02-16T01:17:49.953Z,12.38
2024-02-16T01:20:16.505Z,12.29
2024-02-16T01:22:42.950Z,12.48
2024-02-16T01:25:09.376Z,12.73
2024-02-16T01:27:36.352Z,13.47
2024-02-16T01:30:02.908Z,12.10
2024-02-16T01:32:29.386Z,11.73
2024-02-16T01:34:55.957Z,11.78
2024-02-16T01:37:22.471Z,11.22
2024-02-16T01:39:48.879Z,11.32
2024-02-16T01:42:15.374Z,11.94
2024-02-16T01:44:41.817Z,12.92
2024-02-16T01:47:08.403Z,12.94
2024-02-16T01:49:35.205Z,13.68
2024-02-16T01:52:01.777Z,13.30
2024-02-16T01:54:28.290Z,14.04
2024-02-16T01:56:54.733Z,14.63
2024-02-16T01:59:21.176Z,15.52
2024-02-16T02:01:47.659Z,15.39
2024-02-16T02:04:14.293Z,15.13
2024-02-16T02:06:40.759Z,14.70
2024-02-16T02:09:10.485Z,13.81
2024-02-16T02:11:37.595Z,14.12
2024-02-16T02:14:04.217Z,13.61
2024-02-16T02:16:35.546Z,12.94
2024-02-16T02:19:07.539Z,12.07
2024-02-16T02:21:34.254Z,11.62
2024-02-16T02:24:03.140Z,11.52
2024-02-16T02:26:29.722Z,11.56
2024-02-16T02:28:56.280Z,10.56
2024-02-16T02:31:22.852Z,10.58
2024-02-16T02:33:49.724Z,10.11
2024-02-16T02:36:16.522Z,9.60
2024-02-16T02:38:43.119Z,9.50
2024-02-16T02:41:09.694Z,9.36
2024-02-16T02:43:38.517Z,9.82
2024-02-16T02:46:05.521Z,8.81
2024-02-16T02:48:32.229Z,8.25
2024-02-16T02:50:58.944Z,8.50
2024-02-16T02:53:25.532Z,8.62
2024-02-16T02:55:52.133Z,13.30
2024-02-16T02:58:18.684Z,14.23
2024-02-16T03:00:45.301Z,14.82
2024-02-16T03:03:12.156Z,15.46
2024-02-16T03:05:38.721Z,16.03
2024-02-16T03:08:05.292Z,14.36
2024-02-16T03:10:31.860Z,13.35
2024-02-16T03:12:58.656Z,10.64
2024-02-16T03:15:25.283Z,10.40
2024-02-16T03:17:52.053Z,9.31
2024-02-16T03:20:18.784Z,10.72
2024-02-16T03:22:45.372Z,10.96
2024-02-16T03:25:12.290Z,12.97
2024-02-16T03:27:41.345Z,12.96
2024-02-16T03:30:08.266Z,12.55
2024-02-16T03:32:34.914Z,10.40
2024-02-16T03:35:01.552Z,9.69
2024-02-16T03:37:28.119Z,10.37
2024-02-16T03:39:54.673Z,10.30
2024-02-16T03:42:21.291Z,9.73
2024-02-16T03:44:47.968Z,9.63
2024-02-16T03:47:14.612Z,9.94
2024-02-16T03:49:41.382Z,10.29
2024-02-16T03:52:08.047Z,11.28
2024-02-16T03:54:34.659Z,11.82
2024-02-16T03:57:01.395Z,11.17
2024-02-16T03:59:28.062Z,10.95
2024-02-16T04:01:54.628Z,10.45
2024-02-16T04:04:21.419Z,10.41
2024-02-16T04:06:48.038Z,9.71
2024-02-16T04:09:14.684Z,9.63
2024-02-16T04:11:41.296Z,9.33
2024-02-16T04:14:08.018Z,11.53
2024-02-16T04:16:34.690Z,12.36
2024-02-16T04:19:01.627Z,11.92
2024-02-16T04:21:28.401Z,11.97
2024-02-16T04:23:55.035Z,11.13
2024-02-16T04:26:21.641Z,11.95
2024-02-16T04:28:48.298Z,11.46
2024-02-16T04:31:15.000Z,11.08
2024-02-16T04:33:41.795Z,11.30
2024-02-16T04:36:08.599Z,11.27
2024-02-16T04:38:35.319Z,11.20
2024-02-16T04:41:01.905Z,10.43
2024-02-16T04:43:28.487Z,10.37
2024-02-16T04:45:55.121Z,10.44
2024-02-16T04:48:24.397Z,9.71
2024-02-16T04:50:50.944Z,9.71
2024-02-16T04:53:17.447Z,8.93
2024-02-16T04:55:43.906Z,9.15
2024-02-16T04:58:10.328Z,9.02
2024-02-16T05:00:36.832Z,8.58
2024-02-16T05:03:03.458Z,8.53
2024-02-16T05:05:29.875Z,8.58
2024-02-16T05:07:56.293Z,8.04
2024-02-16T05:10:22.724Z,8.24
2024-02-16T05:12:49.173Z,7.91
2024-02-16T05:15:15.611Z,7.42
2024-02-16T05:17:42.099Z,7.05
2024-02-16T05:20:08.555Z,7.62
2024-02-16T05:22:35.059Z,7.02
2024-02-16T05:25:01.464Z,8.16
2024-02-16T05:27:28.149Z,8.48
2024-02-16T05:29:56.223Z,10.48
2024-02-16T05:32:22.771Z,11.10
2024-02-16T05:34:50.766Z,11.35
2024-02-16T05:37:17.335Z,11.78
2024-02-16T05:39:44.000Z,11.43
2024-02-16T05:42:10.452Z,11.41
2024-02-16T05:44:36.987Z,12.22
2024-02-16T05:47:05.850Z,14.00
2024-02-16T05:49:32.526Z,13.60
2024-02-16T05:51:59.250Z,12.61
2024-02-16T05:54:28.169Z,13.87
2024-02-16T05:56:54.861Z,15.02
2024-02-16T05:59:21.476Z,15.31
2024-02-16T06:01:48.130Z,14.01
2024-02-16T06:04:14.769Z,13.38
2024-02-16T06:06:41.501Z,11.51
2024-02-16T06:09:08.230Z,10.23
2024-02-16T06:11:34.876Z,10.84
2024-02-16T06:14:01.468Z,12.30
2024-02-16T06:16:28.088Z,10.17
2024-02-16T06:18:54.764Z,10.88
2024-02-16T06:21:23.840Z,11.26
2024-02-16T06:23:50.563Z,12.00
2024-02-16T06:26:19.452Z,13.54
2024-02-16T06:28:49.292Z,12.85
2024-02-16T06:31:16.013Z,13.29
2024-02-16T06:33:42.803Z,12.82
2024-02-16T06:36:09.559Z,13.02
2024-02-16T06:38:36.131Z,12.14
2024-02-16T06:41:02.764Z,11.67
2024-02-16T06:43:29.365Z,11.88
2024-02-16T06:45:55.941Z,12.90
2024-02-16T06:48:22.727Z,12.21
2024-02-16T06:50:49.465Z,11.84
2024-02-16T06:53:16.190Z,11.95
2024-02-16T06:55:42.795Z,11.05
2024-02-16T06:58:10.295Z,11.67
2024-02-16T07:00:36.991Z,11.56
2024-02-16T07:03:04.667Z,12.15
2024-02-16T07:05:40.518Z,11.06
2024-02-16T07:08:07.152Z,11.57
2024-02-16T07:10:34.008Z,10.96
2024-02-16T07:13:00.634Z,10.98
2024-02-16T07:15:27.274Z,12.21
2024-02-16T07:17:54.049Z,12.31
2024-02-16T07:20:20.948Z,13.65
2024-02-16T07:22:47.529Z,13.89
2024-02-16T07:25:13.933Z,16.55
2024-02-16T07:27:40.428Z,21.49
2024-02-16T07:30:07.041Z,16.51
2024-02-16T07:32:33.517Z,24.42
2024-02-16T07:35:00.056Z,23.12
2024-02-16T07:37:26.582Z,22.39
2024-02-16T07:39:53.027Z,22.94
2024-02-16T07:42:19.626Z,21.46
2024-02-16T07:44:46.204Z,19.47
2024-02-16T07:47:12.683Z,19.04
2024-02-16T07:49:39.352Z,18.16
2024-02-16T07:52:06.014Z,16.14
2024-02-16T07:54:32.597Z,18.74
2024-02-16T07:56:59.916Z,18.17
2024-02-16T07:59:27.997Z,16.34
2024-02-16T08:01:54.444Z,17.09
2024-02-16T08:04:20.891Z,16.78
2024-02-16T08:06:47.576Z,15.89
2024-02-16T08:09:14.154Z,14.99
2024-02-16T08:11:40.645Z,15.00
2024-02-16T08:14:07.100Z,15.21
2024-02-16T08:16:33.621Z,15.28
2024-02-16T08:19:00.207Z,15.43
2024-02-16T08:21:26.830Z,14.63
2024-02-16T08:23:53.454Z,14.26
2024-02-16T08:26:20.114Z,16.85
2024-02-16T08:28:46.711Z,27.66
2024-02-16T08:31:13.316Z,19.85
2024-02-16T08:33:40.130Z,17.61
2024-02-16T08:36:06.919Z,18.20
2024-02-16T08:38:33.574Z,19.55
2024-02-16T08:41:00.181Z,17.70
2024-02-16T08:43:26.851Z,18.23
2024-02-16T08:45:53.471Z,23.26
2024-02-16T08:48:20.488Z,24.64
2024-02-16T08:50:47.191Z,20.12
2024-02-16T08:53:13.794Z,18.98
2024-02-16T08:55:40.427Z,17.76
2024-02-16T08:58:07.172Z,22.61
2024-02-16T09:00:34.007Z,19.99
2024-02-16T09:03:00.790Z,19.64
2024-02-16T09:05:27.616Z,18.94
2024-02-16T09:07:54.323Z,18.78
2024-02-16T09:10:21.295Z,18.67
2024-02-16T09:12:48.113Z,17.67
2024-02-16T09:15:14.878Z,17.93
2024-02-16T09:17:41.759Z,17.52
2024-02-16T09:20:08.639Z,18.00
2024-02-16T09:22:38.122Z,19.02
2024-02-16T09:25:05.141Z,17.44
2024-02-16T09:27:31.802Z,17.14
2024-02-16T09:29:58.499Z,17.37
2024-02-16T09:32:25.197Z,17.71
2024-02-16T09:34:52.087Z,18.22
2024-02-16T09:37:18.803Z,20.46
2024-02-16T09:39:45.532Z,19.65
2024-02-16T09:42:12.204Z,18.21
2024-02-16T09:44:38.844Z,17.85
2024-02-16T09:47:05.495Z,18.11
2024-02-16T09:49:39.285Z,17.81
2024-02-16T09:52:07.471Z,17.80
2024-02-16T09:54:34.160Z,17.14
2024-02-16T09:57:01.052Z,16.80
2024-02-16T09:59:30.735Z,17.08
2024-02-16T10:01:57.438Z,16.69
2024-02-16T10:04:24.014Z,16.78
2024-02-16T10:06:50.708Z,16.51
2024-02-16T10:09:17.577Z,16.59
2024-02-16T10:11:44.259Z,18.51
2024-02-16T10:14:10.878Z,22.08
2024-02-16T10:16:37.522Z,24.51
2024-02-16T10:19:04.215Z,19.42
2024-02-16T10:21:31.019Z,21.55
2024-02-16T10:23:57.811Z,23.23
2024-02-16T10:26:24.440Z,26.64
2024-02-16T10:28:50.995Z,24.56
2024-02-16T10:31:17.605Z,22.22
2024-02-16T10:33:44.621Z,29.06
2024-02-16T10:36:11.491Z,27.06
2024-02-16T10:38:38.165Z,20.58
2024-02-16T10:41:04.762Z,38.72
2024-02-16T10:43:31.414Z,31.72
2024-02-16T10:45:58.278Z,32.00
2024-02-16T10:48:25.053Z,23.69
2024-02-16T10:50:51.924Z,21.59
2024-02-16T10:53:18.710Z,20.09
2024-02-16T10:55:45.320Z,19.54
2024-02-16T10:58:11.920Z,20.31
2024-02-16T11:00:40.224Z,24.01
2024-02-16T11:03:08.571Z,18.10
2024-02-16T11:05:35.226Z,17.62
2024-02-16T11:08:01.921Z,20.00
2024-02-16T11:10:28.486Z,21.33
2024-02-16T11:12:55.113Z,17.94
2024-02-16T11:15:21.589Z,38.91
2024-02-16T11:17:48.183Z,35.91
2024-02-16T11:20:14.786Z,21.24
2024-02-16T11:22:41.217Z,19.01
2024-02-16T11:25:07.681Z,28.78
2024-02-16T11:27:34.371Z,34.58
2024-02-16T11:30:00.977Z,32.20
2024-02-16T11:32:27.591Z,28.12
2024-02-16T11:34:54.232Z,39.07
2024-02-16T11:37:20.766Z,31.29
2024-02-16T11:39:47.708Z,11.20
2024-02-16T11:42:15.050Z,10.59
2024-02-16T11:44:41.586Z,15.68
2024-02-16T11:47:08.014Z,24.19
2024-02-16T11:49:34.630Z,14.90
2024-02-16T11:52:01.182Z,12.04
2024-02-16T11:54:27.708Z,12.38
2024-02-16T11:56:54.262Z,11.76
2024-02-16T11:59:20.768Z,22.46
2024-02-16T12:01:47.317Z,12.95
2024-02-16T12:04:13.860Z,9.76
2024-02-16T12:06:40.400Z,9.78
2024-02-16T12:09:06.966Z,10.12
2024-02-16T12:11:33.541Z,10.70
2024-02-16T12:14:00.167Z,8.03
2024-02-16T12:16:26.753Z,8.28
2024-02-16T12:18:53.440Z,8.00
2024-02-16T12:21:20.297Z,18.41
2024-02-16T12:23:46.922Z,26.44
2024-02-16T12:26:13.517Z,11.18
2024-02-16T12:28:40.558Z,7.68
2024-02-16T12:31:07.159Z,7.75
2024-02-16T12:33:33.844Z,8.38
2024-02-16T12:36:00.542Z,8.67
2024-02-16T12:38:27.239Z,13.20
2024-02-16T12:40:53.818Z,11.05
2024-02-16T12:43:20.459Z,9.27
2024-02-16T12:45:47.260Z,8.52
2024-02-16T12:48:14.563Z,10.79
2024-02-16T12:50:41.696Z,10.82
2024-02-16T12:53:08.390Z,9.97
2024-02-16T12:55:34.957Z,11.21
2024-02-16T12:58:01.781Z,9.59
2024-02-16T13:00:28.672Z,10.31
2024-02-16T13:02:55.348Z,11.95
2024-02-16T13:05:22.032Z,12.95
2024-02-16T13:07:48.706Z,16.72
2024-02-16T13:10:15.320Z,12.27
2024-02-16T13:12:42.013Z,13.66
2024-02-16T13:15:18.969Z,10.57
2024-02-16T13:17:54.147Z,9.64
2024-02-16T13:20:20.923Z,8.29
2024-02-16T13:22:47.578Z,8.94
2024-02-16T13:25:14.253Z,9.42
2024-02-16T13:27:40.908Z,8.89
2024-02-16T13:30:07.791Z,8.40
2024-02-16T13:32:34.448Z,8.30
2024-02-16T13:35:01.137Z,8.46
2024-02-16T13:37:27.731Z,8.42
2024-02-16T13:39:54.277Z,9.36
2024-02-16T13:42:20.883Z,8.72
2024-02-16T13:44:47.451Z,7.57
2024-02-16T13:47:16.175Z,8.18
2024-02-16T13:49:44.977Z,8.40
2024-02-16T13:52:11.719Z,7.94
2024-02-16T13:54:38.766Z,8.19
2024-02-16T13:57:05.463Z,8.82
2024-02-16T13:59:32.270Z,7.97
2024-02-16T14:01:58.881Z,7.89
2024-02-16T14:04:25.507Z,8.80
2024-02-16T14:06:52.302Z,9.78
2024-02-16T14:09:24.324Z,9.61
2024-02-16T14:11:56.743Z,11.92
2024-02-16T14:14:32.465Z,26.48
2024-02-16T14:17:04.407Z,22.51
2024-02-16T14:19:31.102Z,19.29
2024-02-16T14:21:57.771Z,13.55
2024-02-16T14:24:24.449Z,14.66
2024-02-16T14:26:54.401Z,13.43
2024-02-16T14:29:21.573Z,13.84
2024-02-16T14:31:48.227Z,14.34
2024-02-16T14:34:14.981Z,12.87
2024-02-16T14:36:42.012Z,18.54
2024-02-16T14:39:08.776Z,17.19
2024-02-16T14:41:35.418Z,16.85
2024-02-16T14:44:02.095Z,11.90
2024-02-16T14:46:28.691Z,9.37
2024-02-16T14:48:55.477Z,9.46
2024-02-16T14:51:22.362Z,9.83
2024-02-16T14:53:48.976Z,13.31
2024-02-16T14:56:15.545Z,12.27
2024-02-16T14:58:42.081Z,11.53
2024-02-16T15:01:08.694Z,10.72
2024-02-16T15:03:35.387Z,10.31
2024-02-16T15:06:02.075Z,12.13
2024-02-16T15:08:28.757Z,11.90
2024-02-16T15:10:55.374Z,10.37
2024-02-16T15:13:22.047Z,9.22
2024-02-16T15:15:48.715Z,12.26
2024-02-16T15:18:15.546Z,22.82
2024-02-16T15:20:42.243Z,14.66
2024-02-16T15:23:08.816Z,10.12
2024-02-16T15:25:35.369Z,12.39
2024-02-16T15:28:01.955Z,10.33
2024-02-16T15:30:28.610Z,10.63
2024-02-16T15:32:55.969Z,8.26
2024-02-16T15:35:22.909Z,8.02
2024-02-16T15:37:49.497Z,8.62
2024-02-16T15:40:16.162Z,8.77
2024-02-16T15:42:42.956Z,10.06
2024-02-16T15:45:09.719Z,11.93
2024-02-16T15:47:36.440Z,10.42
2024-02-16T15:50:03.264Z,9.87
2024-02-16T15:52:29.910Z,9.88
2024-02-16T15:54:56.486Z,10.01
2024-02-16T15:57:23.160Z,9.11
2024-02-16T15:59:49.773Z,9.11
2024-02-16T16:02:16.468Z,9.24
2024-02-16T16:04:43.054Z,10.52
2024-02-16T16:07:10.009Z,9.22
2024-02-16T16:09:36.781Z,10.12
2024-02-16T16:12:03.562Z,9.54
2024-02-16T16:14:30.183Z,9.45
2024-02-16T16:16:56.813Z,8.21
2024-02-16T16:19:23.576Z,8.61
2024-02-16T16:21:50.236Z,9.66
2024-02-16T16:24:16.862Z,13.06
2024-02-16T16:26:43.508Z,9.40
2024-02-16T16:29:10.070Z,8.85
2024-02-16T16:31:36.704Z,8.14
2024-02-16T16:34:03.492Z,8.73
2024-02-16T16:36:30.338Z,10.30
2024-02-16T16:38:56.988Z,9.82
2024-02-16T16:41:23.621Z,10.42
2024-02-16T16:43:50.227Z,8.78
2024-02-16T16:46:16.654Z,9.20
2024-02-16T16:48:43.178Z,8.62
2024-02-16T16:51:09.704Z,8.75
2024-02-16T16:53:36.260Z,8.98
2024-02-16T16:56:02.656Z,7.90
2024-02-16T16:58:29.120Z,7.79
2024-02-16T17:00:55.689Z,7.80
2024-02-16T17:03:22.201Z,7.80
2024-02-16T17:05:48.677Z,9.03
2024-02-16T17:08:15.095Z,10.57
2024-02-16T17:10:41.574Z,9.18
2024-02-16T17:13:08.061Z,8.93
2024-02-16T17:15:34.612Z,7.84
2024-02-16T17:18:01.207Z,8.34
2024-02-16T17:20:27.937Z,9.55
2024-02-16T17:22:54.953Z,10.28
2024-02-16T17:25:21.942Z,9.08
2024-02-16T17:27:48.409Z,9.08
2024-02-16T17:30:14.880Z,9.52
2024-02-16T17:32:41.339Z,8.54
2024-02-16T17:35:07.924Z,8.13
2024-02-16T17:37:34.594Z,8.41
2024-02-16T17:40:01.059Z,9.13
2024-02-16T17:42:27.573Z,13.01
2024-02-16T17:44:54.195Z,9.26
2024-02-16T17:47:20.879Z,8.04
2024-02-16T17:49:47.563Z,7.38
2024-02-16T17:52:14.238Z,8.94
2024-02-16T17:54:40.811Z,12.85
2024-02-16T17:57:07.445Z,13.45
2024-02-16T17:59:34.039Z,12.08
2024-02-16T18:02:00.627Z,11.82
2024-02-16T18:04:27.248Z,11.76
2024-02-16T18:06:53.926Z,25.62
2024-02-16T18:09:20.624Z,28.52
2024-02-16T18:11:47.350Z,29.09
2024-02-16T18:14:13.941Z,18.87
2024-02-16T18:16:40.547Z,11.65
2024-02-16T18:19:07.202Z,11.11
2024-02-16T18:21:33.916Z,11.36
2024-02-16T18:24:00.581Z,10.32
2024-02-16T18:26:27.168Z,14.02
2024-02-16T18:28:53.788Z,12.12
2024-02-16T18:31:20.428Z,12.34
2024-02-16T18:33:47.099Z,12.04
2024-02-16T18:36:13.847Z,21.58
2024-02-16T18:38:40.739Z,9.21
2024-02-16T18:41:07.294Z,11.62
2024-02-16T18:43:33.896Z,9.80
2024-02-16T18:46:00.542Z,9.67
2024-02-16T18:48:27.236Z,8.62
2024-02-16T18:50:53.871Z,8.20
2024-02-16T18:53:20.480Z,9.79
2024-02-16T18:55:47.037Z,11.53
2024-02-16T18:58:13.660Z,16.10
2024-02-16T19:00:40.414Z,13.94
2024-02-16T19:03:07.133Z,10.64
2024-02-16T19:05:33.859Z,8.68
2024-02-16T19:08:00.604Z,11.05
2024-02-16T19:10:27.179Z,10.33
2024-02-16T19:12:53.789Z,11.21
2024-02-16T19:15:20.433Z,13.53
2024-02-16T19:17:47.050Z,11.41
2024-02-16T19:20:14.022Z,10.02
2024-02-16T19:22:40.736Z,15.41
2024-02-16T19:25:07.488Z,11.46
2024-02-16T19:27:34.161Z,11.00
2024-02-16T19:30:00.876Z,22.47
2024-02-16T19:32:27.482Z,11.03
2024-02-16T19:34:55.186Z,12.26
2024-02-16T19:37:21.819Z,12.02
2024-02-16T19:39:48.464Z,11.98
2024-02-16T19:42:15.135Z,11.62
2024-02-16T19:44:41.696Z,12.06
2024-02-16T19:47:08.377Z,12.42
2024-02-16T19:49:35.174Z,60.67
2024-02-16T19:52:02.119Z,19.09
2024-02-16T19:54:28.999Z,14.77
2024-02-16T19:56:55.689Z,13.85
2024-02-16T19:59:22.281Z,21.16
2024-02-16T20:01:48.884Z,22.19
2024-02-16T20:04:15.531Z,18.46
2024-02-16T20:06:42.191Z,15.63
2024-02-16T20:09:08.910Z,15.02
2024-02-16T20:11:35.563Z,13.73
2024-02-16T20:14:02.182Z,15.05
2024-02-16T20:16:28.860Z,16.08
2024-02-16T20:18:55.614Z,17.52
2024-02-16T20:21:22.714Z,15.23
2024-02-16T20:23:49.464Z,14.77
2024-02-16T20:26:16.022Z,13.84
2024-02-16T20:28:42.563Z,12.84
2024-02-16T20:31:09.150Z,11.78
2024-02-16T20:33:36.020Z,10.76
2024-02-16T20:36:02.880Z,9.72
2024-02-16T20:38:29.486Z,10.04
2024-02-16T20:40:56.183Z,10.08
2024-02-16T20:43:25.569Z,9.73
2024-02-16T20:45:52.161Z,8.91
2024-02-16T20:48:18.827Z,8.56
2024-02-16T20:50:45.530Z,8.60
2024-02-16T20:53:12.130Z,9.54
2024-02-16T20:55:38.883Z,8.53
2024-02-16T20:58:05.420Z,8.67
2024-02-16T21:00:31.889Z,9.88
2024-02-16T21:02:58.380Z,9.35
2024-02-16T21:05:27.484Z,10.11
2024-02-16T21:07:53.969Z,9.23
2024-02-16T21:10:20.404Z,7.88
2024-02-16T21:12:47.009Z,7.98
2024-02-16T21:15:13.592Z,8.02
2024-02-16T21:17:40.059Z,7.89
2024-02-16T21:20:06.679Z,7.59
2024-02-16T21:22:36.528Z,7.46
2024-02-16T21:25:04.107Z,7.44
2024-02-16T21:27:30.603Z,7.08
2024-02-16T21:29:57.069Z,7.01
2024-02-16T21:32:23.517Z,7.88
2024-02-16T21:34:50.118Z,7.63
2024-02-16T21:37:16.691Z,8.34
2024-02-16T21:39:43.281Z,8.86
2024-02-16T21:42:09.865Z,7.46
2024-02-16T21:44:36.299Z,7.29
2024-02-16T21:47:02.723Z,7.12
2024-02-16T21:49:29.385Z,7.67
2024-02-16T21:51:56.017Z,7.91
2024-02-16T21:54:22.454Z,8.80
2024-02-16T21:56:49.065Z,8.67
2024-02-16T21:59:15.631Z,8.76
2024-02-16T22:01:42.377Z,7.90
2024-02-16T22:04:08.974Z,8.26
2024-02-16T22:06:35.799Z,8.81
2024-02-16T22:09:02.516Z,10.09
2024-02-16T22:11:29.268Z,11.30
2024-02-16T22:13:55.932Z,13.49
2024-02-16T22:16:22.522Z,16.44
2024-02-16T22:18:49.321Z,17.91
2024-02-16T22:21:18.241Z,15.31
2024-02-16T22:23:48.564Z,17.79
2024-02-16T22:26:15.196Z,19.22
2024-02-16T22:28:41.983Z,16.20
2024-02-16T22:31:08.591Z,18.64
2024-02-16T22:33:35.232Z,19.19
2024-02-16T22:36:02.056Z,18.69
2024-02-16T22:38:28.774Z,18.67
2024-02-16T22:40:55.498Z,16.52
2024-02-16T22:43:22.108Z,13.04
2024-02-16T22:45:48.860Z,13.13
2024-02-16T22:48:15.935Z,20.79
2024-02-16T22:50:42.868Z,27.25
2024-02-16T22:53:09.473Z,27.00
2024-02-16T22:55:36.216Z,17.58
2024-02-16T22:58:02.890Z,20.54
2024-02-16T23:00:29.530Z,21.35
2024-02-16T23:02:56.172Z,14.65
2024-02-16T23:05:22.810Z,15.46
2024-02-16T23:07:49.361Z,13.59
2024-02-16T23:10:15.963Z,12.57
2024-02-16T23:12:42.613Z,9.86
2024-02-16T23:15:09.431Z,9.69
2024-02-16T23:17:36.106Z,10.47
2024-02-16T23:20:02.804Z,10.84
2024-02-16T23:22:29.389Z,10.36
2024-02-16T23:24:55.959Z,10.31
2024-02-16T23:27:22.703Z,9.95
2024-02-16T23:29:49.366Z,9.06
2024-02-16T23:32:15.953Z,9.65
2024-02-16T23:34:42.654Z,10.43
2024-02-16T23:37:09.318Z,8.58
2024-02-16T23:39:35.995Z,7.42
2024-02-16T23:42:02.774Z,6.79
2024-02-16T23:44:29.403Z,7.46
2024-02-16T23:46:55.944Z,7.49
2024-02-16T23:49:22.745Z,7.16
2024-02-16T23:51:49.346Z,6.64
2024-02-16T23:54:15.962Z,6.39
2024-02-16T23:56:42.557Z,7.04
2024-02-16T23:59:09.144Z,6.96
